Time;durP1;ratioP1;P1;durP2;ratioP2;P2;SDS_P1;SDS_P2;PMS_P1;PMS_P2;Temp;Humidity;BMP_temperature;BMP_pressure;BME280_temperature;BME280_humidity;BME280_pressure;Samples;Min_cycle;Max_cycle;Signal;HPM_P1;HPM_P2
2024/02/07 00:00:41;;;;;;;8.03;4.10;;;4.80;99.90;;;;;;6213481;23;20017;-76
2024/02/07 00:03:07;;;;;;;8.10;4.13;;;4.80;99.90;;;;;;6213614;23;20000;-75
2024/02/07 00:05:33;;;;;;;7.27;4.00;;;4.80;99.90;;;;;;6213278;23;20008;-75
2024/02/07 00:07:58;;;;;;;5.70;3.93;;;4.80;99.90;;;;;;6213254;23;20011;-75
2024/02/07 00:10:24;;;;;;;5.90;3.80;;;4.80;99.90;;;;;;6213907;23;20005;-76
2024/02/07 00:12:49;;;;;;;7.13;3.83;;;4.80;99.90;;;;;;6213129;23;20420;-75
2024/02/07 00:15:15;;;;;;;8.37;3.93;;;4.80;99.90;;;;;;6212513;23;20330;-76
2024/02/07 00:17:40;;;;;;;7.07;3.80;;;4.80;99.90;;;;;;6213508;23;19997;-76
2024/02/07 00:20:06;;;;;;;5.97;3.93;;;4.80;99.90;;;;;;6213677;23;20007;-75
2024/02/07 00:22:32;;;;;;;8.43;4.30;;;4.70;99.90;;;;;;6213983;23;20000;-76
2024/02/07 00:24:57;;;;;;;6.20;4.13;;;4.70;99.90;;;;;;6212398;23;20015;-76
2024/02/07 00:27:23;;;;;;;6.17;3.90;;;4.70;99.90;;;;;;6213689;23;20001;-76
2024/02/07 00:29:48;;;;;;;9.67;5.00;;;4.70;99.90;;;;;;6213749;23;20092;-77
2024/02/07 00:32:15;;;;;;;6.53;4.00;;;4.70;99.90;;;;;;6213759;23;20004;-75
2024/02/07 00:34:41;;;;;;;8.07;4.10;;;4.70;99.90;;;;;;6213496;23;20004;-75
2024/02/07 00:37:06;;;;;;;9.83;3.83;;;4.70;99.90;;;;;;6213674;23;20005;-75
2024/02/07 00:39:35;;;;;;;5.53;3.80;;;4.70;99.90;;;;;;6213308;23;20008;-76
2024/02/07 00:42:01;;;;;;;6.50;4.73;;;4.70;99.90;;;;;;6213448;23;20005;-75
2024/02/07 00:44:26;;;;;;;7.67;4.27;;;4.70;99.90;;;;;;6212937;23;20051;-75
2024/02/07 00:46:52;;;;;;;8.63;4.20;;;4.70;99.90;;;;;;6213320;23;20489;-75
2024/02/07 00:49:17;;;;;;;6.03;4.10;;;4.60;99.90;;;;;;6213302;23;20430;-77
2024/02/07 00:51:43;;;;;;;7.40;4.50;;;4.60;99.90;;;;;;6213356;23;20001;-76
2024/02/07 00:54:08;;;;;;;7.00;3.87;;;4.60;99.90;;;;;;6212627;23;20478;-75
2024/02/07 00:56:34;;;;;;;5.07;4.00;;;4.60;99.90;;;;;;6213426;23;20001;-75
2024/02/07 00:59:00;;;;;;;5.60;3.70;;;4.60;99.90;;;;;;6212780;23;20008;-76
2024/02/07 01:01:26;;;;;;;11.70;4.17;;;4.60;99.90;;;;;;6213538;23;20031;-76
2024/02/07 01:03:51;;;;;;;6.50;4.20;;;4.70;99.90;;;;;;6212363;23;20327;-76
2024/02/07 01:06:17;;;;;;;6.50;4.20;;;4.70;99.90;;;;;;6213171;23;19997;-76
2024/02/07 01:08:43;;;;;;;7.70;4.23;;;4.60;99.90;;;;;;6212767;23;20075;-76
2024/02/07 01:11:09;;;;;;;6.20;3.80;;;4.70;99.90;;;;;;6212189;23;20530;-75
2024/02/07 01:13:35;;;;;;;7.10;4.27;;;4.70;99.90;;;;;;6212569;23;20004;-75
2024/02/07 01:16:01;;;;;;;6.03;3.90;;;4.70;99.90;;;;;;6212730;23;20088;-75
2024/02/07 01:18:26;;;;;;;6.57;4.40;;;4.70;99.90;;;;;;6213165;23;20423;-75
2024/02/07 01:20:52;;;;;;;6.20;4.03;;;4.70;99.90;;;;;;6213562;23;20054;-75
2024/02/07 01:23:17;;;;;;;8.17;4.63;;;4.70;99.90;;;;;;6212909;23;20001;-75
2024/02/07 01:25:43;;;;;;;7.07;4.40;;;4.70;99.90;;;;;;6214044;23;19997;-75
2024/02/07 01:28:08;;;;;;;8.37;4.23;;;4.70;99.90;;;;;;6215023;23;20060;-75
2024/02/07 01:30:34;;;;;;;6.70;4.50;;;4.70;99.90;;;;;;6215096;23;20050;-75
2024/02/07 01:33:01;;;;;;;6.30;4.20;;;4.70;99.90;;;;;;6214850;23;20001;-75
2024/02/07 01:35:30;;;;;;;6.17;4.00;;;4.70;99.90;;;;;;6214232;23;20005;-75
2024/02/07 01:38:04;;;;;;;8.60;4.37;;;4.80;99.90;;;;;;6214818;23;20004;-75
2024/02/07 01:40:38;;;;;;;7.93;4.33;;;4.70;99.90;;;;;;6214518;23;20446;-75
2024/02/07 01:43:03;;;;;;;8.67;4.40;;;4.60;99.90;;;;;;6215014;23;20064;-75
2024/02/07 01:45:33;;;;;;;6.47;4.80;;;4.60;99.90;;;;;;6214471;23;20407;-75
2024/02/07 01:47:59;;;;;;;7.17;4.27;;;4.60;99.90;;;;;;6214610;23;20008;-75
2024/02/07 01:50:25;;;;;;;5.80;4.03;;;4.70;99.90;;;;;;6215076;23;20013;-75
2024/02/07 01:52:54;;;;;;;6.77;3.90;;;4.70;99.90;;;;;;6214631;23;20000;-75
2024/02/07 01:55:21;;;;;;;6.20;4.20;;;4.70;99.90;;;;;;6213976;23;20083;-75
2024/02/07 01:57:48;;;;;;;6.83;4.40;;;4.70;99.90;;;;;;6214354;23;19996;-74
2024/02/07 02:00:15;;;;;;;7.43;4.40;;;4.70;99.90;;;;;;6214936;23;20007;-76
2024/02/07 02:02:44;;;;;;;7.13;4.00;;;4.70;99.90;;;;;;6214648;23;20007;-75
2024/02/07 02:05:11;;;;;;;6.83;4.23;;;4.70;99.90;;;;;;6214247;23;20055;-75
2024/02/07 02:07:36;;;;;;;7.17;4.43;;;4.60;99.90;;;;;;6214534;23;20005;-75
2024/02/07 02:10:04;;;;;;;7.47;4.60;;;4.60;99.90;;;;;;6214390;23;20031;-76
2024/02/07 02:12:30;;;;;;;8.10;4.47;;;4.60;99.90;;;;;;6214580;23;20080;-75
2024/02/07 02:14:57;;;;;;;7.33;4.63;;;4.60;99.90;;;;;;6213791;23;20027;-75
2024/02/07 02:17:22;;;;;;;9.47;4.87;;;4.60;99.90;;;;;;6214059;23;20004;-75
2024/02/07 02:19:50;;;;;;;8.17;4.87;;;4.50;99.90;;;;;;6214903;23;20005;-75
2024/02/07 02:22:23;;;;;;;7.03;4.73;;;4.60;99.90;;;;;;6214485;23;20067;-75
2024/02/07 02:25:07;;;;;;;8.43;3.97;;;4.60;99.90;;;;;;6213402;23;20001;-75
2024/02/07 02:27:42;;;;;;;8.60;4.50;;;4.60;99.90;;;;;;6214777;23;20043;-75
2024/02/07 02:30:21;;;;;;;9.07;4.72;;;4.60;99.90;;;;;;6214730;23;20019;-76
2024/02/07 02:32:49;;;;;;;7.30;4.90;;;4.60;99.90;;;;;;6214089;23;19997;-75
2024/02/07 02:35:17;;;;;;;9.80;4.10;;;4.60;99.90;;;;;;6213461;23;19996;-75
2024/02/07 02:37:45;;;;;;;6.50;4.10;;;4.60;99.90;;;;;;6213936;23;20004;-75
2024/02/07 02:40:11;;;;;;;5.20;3.77;;;4.50;99.90;;;;;;6214204;23;20001;-76
2024/02/07 02:42:36;;;;;;;7.70;4.17;;;4.60;99.90;;;;;;6214409;23;20422;-75
2024/02/07 02:45:02;;;;;;;7.73;4.43;;;4.60;99.90;;;;;;6213889;23;20352;-76
2024/02/07 02:47:28;;;;;;;7.80;3.80;;;4.60;99.90;;;;;;6214255;23;20031;-75
2024/02/07 02:49:55;;;;;;;11.30;3.93;;;4.60;99.90;;;;;;6214505;23;20017;-75
2024/02/07 02:52:22;;;;;;;6.13;4.27;;;4.60;99.90;;;;;;6214057;23;20005;-75
2024/02/07 02:54:49;;;;;;;10.07;4.00;;;4.50;99.90;;;;;;6213854;23;20043;-76
2024/02/07 02:57:16;;;;;;;7.27;4.13;;;4.50;99.90;;;;;;6213924;23;20479;-75
2024/02/07 02:59:43;;;;;;;6.63;3.87;;;4.60;99.90;;;;;;6214672;23;20009;-75
2024/02/07 03:02:09;;;;;;;7.57;4.17;;;4.60;99.90;;;;;;6214660;23;20006;-75
2024/02/07 03:04:41;;;;;;;7.10;3.57;;;4.60;99.90;;;;;;6214259;23;20067;-75
2024/02/07 03:09:52;;;;;;;11.63;4.20;;;4.60;99.90;;;;;;6214263;23;20044;-75
2024/02/07 03:12:17;;;;;;;8.30;3.87;;;4.60;99.90;;;;;;6213644;23;20005;-75
2024/02/07 03:14:43;;;;;;;10.27;3.53;;;4.70;99.90;;;;;;6213637;23;20001;-75
2024/02/07 03:17:08;;;;;;;7.60;4.07;;;4.70;99.90;;;;;;6213657;23;20004;-75
2024/02/07 03:19:35;;;;;;;8.90;3.90;;;4.70;99.90;;;;;;6213580;23;20005;-75
2024/02/07 03:22:01;;;;;;;7.50;3.73;;;4.70;99.90;;;;;;6213833;23;20001;-75
2024/02/07 03:24:26;;;;;;;5.80;3.50;;;4.70;99.90;;;;;;6212915;23;20003;-74
2024/02/07 03:26:53;;;;;;;17.20;5.00;;;4.70;99.90;;;;;;6213204;23;20027;-75
2024/02/07 03:29:19;;;;;;;7.23;3.60;;;4.80;99.90;;;;;;6213722;23;20032;-75
2024/02/07 03:31:45;;;;;;;7.13;3.60;;;4.80;99.90;;;;;;6213562;23;20035;-75
2024/02/07 03:34:11;;;;;;;8.67;3.60;;;4.80;99.90;;;;;;6212905;23;20000;-75
2024/02/07 03:36:37;;;;;;;7.67;3.30;;;4.90;99.90;;;;;;6213190;23;20027;-75
2024/02/07 03:39:09;;;;;;;9.53;3.73;;;4.80;99.90;;;;;;6213245;23;20079;-76
2024/02/07 03:41:35;;;;;;;7.33;3.30;;;4.80;99.90;;;;;;6213370;23;20374;-75
2024/02/07 03:44:01;;;;;;;7.03;3.30;;;4.80;99.90;;;;;;6213294;23;20000;-75
2024/02/07 03:46:27;;;;;;;10.43;3.90;;;4.90;99.90;;;;;;6213275;23;20008;-75
2024/02/07 03:48:53;;;;;;;9.07;2.97;;;4.90;99.90;;;;;;6213281;23;20312;-75
2024/02/07 03:51:26;;;;;;;6.53;3.50;;;4.90;99.90;;;;;;6213288;23;20429;-75
2024/02/07 03:53:53;;;;;;;8.23;3.30;;;4.90;99.90;;;;;;6213265;23;19997;-75
2024/02/07 03:56:18;;;;;;;6.80;3.27;;;4.90;99.90;;;;;;6213652;23;20004;-75
2024/02/07 03:58:44;;;;;;;7.13;3.17;;;4.90;99.90;;;;;;6213523;23;20104;-75
2024/02/07 04:01:12;;;;;;;9.73;3.73;;;4.90;99.90;;;;;;6212413;23;19996;-75
2024/02/07 04:03:39;;;;;;;6.90;3.07;;;5.00;99.90;;;;;;6213275;23;20386;-75
2024/02/07 04:06:05;;;;;;;6.47;3.60;;;5.00;99.90;;;;;;6213861;23;20308;-76
2024/02/07 04:08:31;;;;;;;9.57;3.20;;;5.00;99.90;;;;;;6213114;23;20012;-75
2024/02/07 04:10:57;;;;;;;7.07;3.20;;;5.00;99.90;;;;;;6213553;23;20001;-76
2024/02/07 05:16:13;;;;;;;7.33;3.73;;;5.40;99.90;;;;;;6213871;23;20469;-75
2024/02/07 05:18:39;;;;;;;9.07;3.30;;;5.50;99.90;;;;;;6215131;23;20008;-75
2024/02/07 05:21:11;;;;;;;8.43;3.80;;;5.50;99.90;;;;;;6214196;23;20373;-75
2024/02/07 05:23:37;;;;;;;8.60;3.07;;;5.50;99.90;;;;;;6214582;23;20075;-75
2024/02/07 05:26:04;;;;;;;6.30;3.57;;;5.50;99.90;;;;;;6214439;23;20072;-76
2024/02/07 05:28:30;;;;;;;8.97;3.53;;;5.50;99.90;;;;;;6214812;23;20013;-75
2024/02/07 05:30:56;;;;;;;7.43;3.73;;;5.50;99.90;;;;;;6218663;23;20070;-83
2024/02/07 05:33:21;;;;;;;10.00;3.80;;;5.50;99.90;;;;;;6219837;23;20008;-82
2024/02/07 05:35:47;;;;;;;8.47;3.40;;;5.60;99.90;;;;;;6218706;23;20001;-82
2024/02/07 05:38:13;;;;;;;7.10;3.30;;;5.60;99.90;;;;;;6219876;23;20005;-82
2024/02/07 05:40:38;;;;;;;11.03;3.70;;;5.60;99.90;;;;;;6220024;23;20011;-80
2024/02/07 05:43:05;;;;;;;9.73;3.43;;;5.70;99.90;;;;;;6210362;23;20012;-78
2024/02/07 05:45:31;;;;;;;10.80;3.60;;;5.70;99.90;;;;;;6214359;23;20004;-78
2024/02/07 05:47:56;;;;;;;8.47;3.53;;;5.80;99.90;;;;;;6215457;23;20031;-79
2024/02/07 05:50:22;;;;;;;8.43;3.30;;;5.80;99.90;;;;;;6215039;23;20012;-78
2024/02/07 05:52:48;;;;;;;8.13;3.13;;;5.90;99.90;;;;;;6215768;23;20005;-79
2024/02/07 05:55:14;;;;;;;11.23;3.33;;;5.90;99.90;;;;;;6215638;23;20311;-78
2024/02/07 05:57:39;;;;;;;6.03;3.70;;;5.90;99.90;;;;;;6215702;23;20004;-79
2024/02/07 06:00:07;;;;;;;8.33;3.43;;;5.90;99.90;;;;;;6216422;23;20028;-79
2024/02/07 06:02:33;;;;;;;4.63;2.93;;;5.90;99.90;;;;;;6216521;23;19996;-79
2024/02/07 06:05:03;;;;;;;7.87;3.33;;;5.90;99.90;;;;;;6215812;23;20062;-79
2024/02/07 06:07:30;;;;;;;7.17;3.60;;;5.90;99.90;;;;;;6213189;23;20419;-78
2024/02/07 06:09:56;;;;;;;8.73;3.30;;;5.90;99.90;;;;;;6211544;23;20012;-79
2024/02/07 06:12:22;;;;;;;6.83;3.13;;;5.90;99.90;;;;;;6212870;23;20056;-79
2024/02/07 06:14:48;;;;;;;7.67;3.30;;;5.90;99.90;;;;;;6214571;23;20008;-79
2024/02/07 06:17:13;;;;;;;6.80;3.30;;;5.90;99.90;;;;;;6213415;23;20087;-78
2024/02/07 06:19:39;;;;;;;7.27;3.10;;;5.90;99.90;;;;;;6213204;23;20088;-79
2024/02/07 06:22:05;;;;;;;6.47;3.33;;;5.90;99.90;;;;;;6214356;23;20032;-79
2024/02/07 06:24:31;;;;;;;8.00;2.93;;;5.90;99.90;;;;;;6214207;23;20350;-79
2024/02/07 06:26:58;;;;;;;7.83;2.83;;;5.90;99.90;;;;;;6188358;23;20004;-79
2024/02/07 06:29:23;;;;;;;6.50;2.80;;;6.00;99.90;;;;;;6215573;23;20506;-79
2024/02/07 06:31:49;;;;;;;6.27;3.30;;;5.90;99.90;;;;;;6214821;23;20005;-79
2024/02/07 06:34:15;;;;;;;6.57;2.77;;;5.90;99.90;;;;;;6214131;23;20430;-79
2024/02/07 06:36:40;;;;;;;7.70;3.27;;;5.90;99.90;;;;;;6213935;23;20335;-79
2024/02/07 06:39:06;;;;;;;9.43;2.50;;;5.90;99.90;;;;;;6214848;23;20004;-79
2024/02/07 06:41:31;;;;;;;6.40;2.67;;;6.00;99.90;;;;;;6214440;23;19997;-79
2024/02/07 06:43:57;;;;;;;6.93;3.13;;;5.90;99.90;;;;;;6214874;23;20004;-79
2024/02/07 06:46:24;;;;;;;7.90;2.83;;;6.00;99.90;;;;;;6215311;23;20435;-79
2024/02/07 06:48:49;;;;;;;8.47;2.87;;;6.00;99.90;;;;;;6216141;23;20016;-79
2024/02/07 06:51:15;;;;;;;10.37;2.90;;;6.00;99.90;;;;;;6213760;23;20016;-79
2024/02/07 06:53:41;;;;;;;12.13;3.40;;;6.10;99.90;;;;;;6214671;23;20000;-79
2024/02/07 06:56:07;;;;;;;4.80;2.20;;;6.10;99.90;;;;;;6214432;23;20079;-79
2024/02/07 06:58:32;;;;;;;5.47;2.77;;;6.10;99.90;;;;;;6215436;23;20008;-79
2024/02/07 07:00:58;;;;;;;9.00;3.03;;;6.20;99.90;;;;;;6216165;23;20080;-80
2024/02/07 07:03:27;;;;;;;12.43;3.10;;;6.20;99.90;;;;;;6216460;23;20063;-80
2024/02/07 07:05:53;;;;;;;9.23;2.80;;;6.10;99.90;;;;;;6214855;23;20002;-79
2024/02/07 07:08:18;;;;;;;8.20;2.70;;;6.10;99.90;;;;;;6215284;23;20083;-79
2024/02/07 07:10:44;;;;;;;20.43;2.60;;;6.20;99.90;;;;;;6210169;23;20000;-77
2024/02/07 07:13:09;;;;;;;7.17;2.77;;;6.20;99.90;;;;;;6211164;23;20001;-78
2024/02/07 07:15:35;;;;;;;7.57;3.00;;;6.20;99.90;;;;;;6211595;23;20015;-77
2024/02/07 07:18:01;;;;;;;7.63;2.80;;;6.20;99.90;;;;;;6212585;23;20004;-78
2024/02/07 07:20:31;;;;;;;7.57;2.97;;;6.20;99.90;;;;;;6211226;23;20339;-78
2024/02/07 07:23:02;;;;;;;8.13;2.60;;;6.20;99.90;;;;;;6212844;23;20051;-77
2024/02/07 07:25:27;;;;;;;7.60;2.80;;;6.30;99.90;;;;;;6211120;23;20000;-77
2024/02/07 07:27:53;;;;;;;6.90;3.03;;;6.40;99.90;;;;;;6212271;23;20507;-78
2024/02/07 07:30:18;;;;;;;13.40;3.53;;;6.40;99.90;;;;;;6212547;23;20079;-77
2024/02/07 07:32:44;;;;;;;5.50;2.60;;;6.50;99.90;;;;;;6212253;23;20005;-78
2024/02/07 07:35:10;;;;;;;10.67;2.80;;;6.50;99.90;;;;;;6210680;23;20012;-78
2024/02/07 07:37:36;;;;;;;5.93;2.80;;;6.60;99.90;;;;;;6211428;23;20012;-77
2024/02/07 07:40:03;;;;;;;15.10;4.27;;;6.60;99.90;;;;;;6211091;23;20007;-78
2024/02/07 07:42:29;;;;;;;7.57;3.10;;;6.60;99.90;;;;;;6211543;23;20000;-78
2024/02/07 07:44:54;;;;;;;7.37;2.63;;;6.70;99.90;;;;;;6210760;23;20091;-75
2024/02/07 07:47:20;;;;;;;5.83;2.40;;;6.70;99.90;;;;;;6211753;23;19996;-75
2024/02/07 07:49:45;;;;;;;7.00;3.07;;;6.80;99.90;;;;;;6210807;23;20015;-75
2024/02/07 07:52:11;;;;;;;7.17;2.83;;;6.80;99.90;;;;;;6209870;23;20000;-74
2024/02/07 07:54:37;;;;;;;9.07;2.70;;;6.90;99.90;;;;;;6211054;23;20104;-74
2024/02/07 07:57:04;;;;;;;5.87;2.60;;;7.10;99.90;;;;;;6214227;23;20019;-82
2024/02/07 07:59:31;;;;;;;9.87;2.80;;;7.30;99.90;;;;;;6216985;23;20015;-82
2024/02/07 08:02:00;;;;;;;7.23;2.37;;;7.30;99.90;;;;;;6214360;23;20005;-81
2024/02/07 08:04:26;;;;;;;6.83;2.33;;;7.40;99.90;;;;;;6214075;23;20015;-81
2024/02/07 08:06:52;;;;;;;4.90;2.10;;;7.40;99.90;;;;;;6218042;23;20000;-81
2024/02/07 08:09:18;;;;;;;10.60;2.40;;;7.60;99.90;;;;;;6218660;23;20044;-81
2024/02/07 08:11:44;;;;;;;7.93;2.63;;;7.60;99.90;;;;;;6216200;23;20004;-82
2024/02/07 08:14:10;;;;;;;7.83;2.80;;;7.70;99.90;;;;;;6217239;23;20023;-81
2024/02/07 08:16:35;;;;;;;5.63;2.73;;;7.80;99.90;;;;;;6216186;23;20016;-81
2024/02/07 08:19:01;;;;;;;7.97;2.40;;;7.90;99.90;;;;;;6216381;23;20001;-81
2024/02/07 08:21:26;;;;;;;6.60;2.30;;;8.00;99.90;;;;;;6217410;23;20008;-81
2024/02/07 08:23:53;;;;;;;6.20;2.33;;;8.00;99.90;;;;;;6215888;23;20001;-81
2024/02/07 08:26:19;;;;;;;5.07;2.37;;;8.10;99.90;;;;;;6215123;23;20032;-83
2024/02/07 08:28:45;;;;;;;10.57;2.63;;;8.10;99.90;;;;;;6216964;23;20013;-82
2024/02/07 08:31:12;;;;;;;8.73;2.10;;;8.10;99.90;;;;;;6210277;23;20450;-82
2024/02/07 08:33:37;;;;;;;6.33;2.23;;;8.20;99.90;;;;;;6214826;23;20005;-84
2024/02/07 08:36:03;;;;;;;10.33;2.40;;;8.20;99.90;;;;;;6217872;23;20075;-82
2024/02/07 08:38:29;;;;;;;9.10;2.17;;;8.30;99.90;;;;;;6218215;23;19997;-83
2024/02/07 08:40:56;;;;;;;7.10;2.27;;;8.30;99.90;;;;;;6216648;23;20426;-83
2024/02/07 08:43:22;;;;;;;5.77;2.03;;;8.30;99.90;;;;;;6217578;23;20110;-83
2024/02/07 08:45:48;;;;;;;6.70;2.37;;;8.50;99.90;;;;;;6218001;23;20000;-83
2024/02/07 08:48:13;;;;;;;4.70;2.00;;;8.60;99.90;;;;;;6218480;23;20001;-82
2024/02/07 08:50:39;;;;;;;5.33;1.90;;;8.60;99.90;;;;;;6218472;23;20479;-82
2024/02/07 08:53:05;;;;;;;5.27;2.13;;;8.60;99.90;;;;;;6216155;23;20011;-83
2024/02/07 08:55:31;;;;;;;7.77;2.87;;;8.70;99.90;;;;;;6218116;23;20044;-82
2024/02/07 08:57:58;;;;;;;4.70;2.10;;;8.80;99.90;;;;;;6212090;23;20012;-84
2024/02/07 09:00:24;;;;;;;7.77;2.30;;;8.80;99.90;;;;;;6196441;23;20008;-83
2024/02/07 09:02:51;;;;;;;7.53;2.33;;;8.90;99.90;;;;;;6216445;23;20404;-82
2024/02/07 09:05:17;;;;;;;6.73;2.10;;;8.90;99.90;;;;;;6217035;23;20000;-82
2024/02/07 09:07:43;;;;;;;8.50;2.50;;;9.00;99.90;;;;;;6218069;23;19997;-82
2024/02/07 09:10:09;;;;;;;4.53;2.10;;;9.10;99.90;;;;;;6217638;23;20008;-84
2024/02/07 09:12:35;;;;;;;5.27;2.40;;;9.00;99.90;;;;;;6219298;23;20013;-82
2024/02/07 09:15:00;;;;;;;12.17;2.60;;;9.10;99.90;;;;;;6216608;23;20000;-84
2024/02/07 09:17:26;;;;;;;9.00;2.57;;;9.00;99.90;;;;;;6215363;23;20012;-83
2024/02/07 09:19:52;;;;;;;4.93;2.17;;;9.00;99.90;;;;;;6216875;23;20001;-82
2024/02/07 09:22:18;;;;;;;5.87;2.27;;;8.90;99.90;;;;;;6218229;23;20051;-82
2024/02/07 09:24:43;;;;;;;7.73;2.27;;;8.90;99.90;;;;;;6217330;23;20076;-81
2024/02/07 09:27:09;;;;;;;7.30;2.33;;;9.00;99.90;;;;;;6219369;23;20012;-82
2024/02/07 09:29:35;;;;;;;14.07;2.20;;;9.10;99.90;;;;;;6218763;23;20094;-83
2024/02/07 09:32:02;;;;;;;7.60;2.50;;;9.20;99.90;;;;;;6216435;23;20099;-81
2024/02/07 09:34:27;;;;;;;6.47;2.00;;;9.20;99.90;;;;;;6217439;23;20012;-82
2024/02/07 09:36:53;;;;;;;6.60;2.40;;;9.30;99.90;;;;;;6218796;23;20083;-83
2024/02/07 09:39:20;;;;;;;3.80;2.00;;;9.40;99.90;;;;;;6217176;23;20423;-82
2024/02/07 09:41:46;;;;;;;5.70;1.90;;;9.60;99.90;;;;;;6215679;23;20032;-83
2024/02/07 09:44:15;;;;;;;3.50;1.70;;;9.70;99.90;;;;;;6218143;23;20008;-82
2024/02/07 09:46:43;;;;;;;11.30;2.57;;;9.70;99.90;;;;;;6216189;23;20327;-83
2024/02/07 09:49:11;;;;;;;5.70;1.80;;;9.90;99.90;;;;;;6218582;23;20016;-82
2024/02/07 09:51:39;;;;;;;8.43;2.20;;;9.90;99.90;;;;;;6218071;23;20004;-84
2024/02/07 09:54:05;;;;;;;7.27;2.20;;;10.10;99.90;;;;;;6217281;23;20001;-81
2024/02/07 09:56:33;;;;;;;5.67;2.03;;;10.20;99.90;;;;;;6217261;23;20703;-83
2024/02/07 09:59:00;;;;;;;8.07;1.87;;;10.40;99.90;;;;;;6218957;23;20000;-83
2024/02/07 10:01:28;;;;;;;7.10;2.17;;;10.60;99.90;;;;;;6216285;23;20793;-82
2024/02/07 10:03:56;;;;;;;6.13;1.60;;;10.70;99.90;;;;;;6217453;23;20001;-85
2024/02/07 10:06:24;;;;;;;16.27;2.07;;;10.60;99.90;;;;;;6216188;23;20435;-83
2024/02/07 10:08:51;;;;;;;6.23;1.80;;;10.50;99.90;;;;;;6217825;23;20119;-82
2024/02/07 10:11:17;;;;;;;6.80;1.90;;;10.30;99.90;;;;;;6217688;23;20014;-82
2024/02/07 10:13:43;;;;;;;6.30;1.80;;;10.30;99.90;;;;;;6218132;23;20011;-83
2024/02/07 10:16:09;;;;;;;4.93;1.87;;;10.20;99.90;;;;;;6216915;23;20092;-83
2024/02/07 10:18:35;;;;;;;5.77;1.80;;;10.10;99.90;;;;;;6218532;23;20004;-82
2024/02/07 10:21:02;;;;;;;3.57;1.70;;;10.10;99.90;;;;;;6216237;23;20027;-86
2024/02/07 10:23:28;;;;;;;10.93;1.87;;;10.10;99.90;;;;;;6218369;23;20004;-82
2024/02/07 10:25:55;;;;;;;5.27;2.00;;;10.20;99.90;;;;;;6215671;23;19997;-82
2024/02/07 10:28:24;;;;;;;4.23;1.77;;;10.20;99.90;;;;;;6211795;23;20012;-82
2024/02/07 10:31:02;;;;;;;4.27;1.83;;;10.20;99.90;;;;;;6194778;23;20097;-83
2024/02/07 10:33:41;;;;;;;7.43;1.90;;;10.30;99.90;;;;;;6207194;23;20007;-83
2024/02/07 10:36:07;;;;;;;7.00;2.30;;;10.30;99.90;;;;;;6214835;23;20004;-83
2024/02/07 10:38:34;;;;;;;3.20;1.77;;;10.30;99.90;;;;;;6212585;23;20004;-83
2024/02/07 10:41:00;;;;;;;4.33;2.17;;;10.40;99.90;;;;;;6216483;23;20005;-82
2024/02/07 10:43:27;;;;;;;5.63;1.60;;;10.60;99.90;;;;;;6216208;23;20017;-84
2024/02/07 10:46:03;;;;;;;5.87;1.60;;;10.50;99.90;;;;;;6214195;23;20009;-82
2024/02/07 10:48:29;;;;;;;4.17;1.80;;;10.50;99.90;;;;;;6216843;23;20016;-83
2024/02/07 10:50:57;;;;;;;6.50;2.20;;;10.50;99.90;;;;;;6216207;23;20060;-83
2024/02/07 10:53:22;;;;;;;12.27;1.80;;;10.30;99.90;;;;;;6218066;23;20008;-84
2024/02/07 10:55:49;;;;;;;3.83;1.97;;;10.30;99.90;;;;;;6217390;23;20419;-84
2024/02/07 10:58:17;;;;;;;3.70;1.77;;;10.20;99.90;;;;;;6218577;23;20020;-84
2024/02/07 11:00:44;;;;;;;4.47;2.07;;;10.20;99.90;;;;;;6219114;23;20005;-83
2024/02/07 11:03:11;;;;;;;4.10;1.87;;;10.10;99.90;;;;;;6218256;23;20419;-85
2024/02/07 11:05:39;;;;;;;9.13;1.87;;;10.10;99.90;;;;;;6219112;23;20334;-83
2024/02/07 11:08:06;;;;;;;4.67;2.33;;;10.20;99.90;;;;;;6219889;23;20000;-83
2024/02/07 11:10:33;;;;;;;4.70;2.03;;;10.30;99.90;;;;;;6217995;23;20096;-85
2024/02/07 11:12:59;;;;;;;5.03;1.80;;;10.40;99.90;;;;;;6219495;23;20012;-83
2024/02/07 11:15:25;;;;;;;9.63;2.03;;;10.50;99.90;;;;;;6219427;23;20382;-83
2024/02/07 11:17:50;;;;;;;7.47;2.23;;;10.40;99.90;;;;;;6218979;23;20005;-86
2024/02/07 11:20:17;;;;;;;5.27;2.07;;;10.40;99.90;;;;;;6219726;23;20005;-84
2024/02/07 11:22:46;;;;;;;5.27;2.27;;;10.30;99.90;;;;;;6218733;23;20056;-83
2024/02/07 11:25:19;;;;;;;4.97;1.77;;;10.30;99.90;;;;;;6219878;23;20001;-83
2024/02/07 11:27:45;;;;;;;4.57;1.80;;;10.30;99.90;;;;;;6219735;23;20358;-84
2024/02/07 11:30:11;;;;;;;9.93;2.33;;;10.40;99.90;;;;;;6219643;23;20012;-85
2024/02/07 11:32:39;;;;;;;7.00;1.47;;;10.40;99.90;;;;;;6219326;23;20048;-85
2024/02/07 11:35:10;;;;;;;6.77;1.90;;;10.50;99.90;;;;;;6218289;23;20005;-83
2024/02/07 11:37:37;;;;;;;4.70;1.40;;;10.60;99.90;;;;;;6218702;23;20012;-83
2024/02/07 11:40:08;;;;;;;4.27;1.50;;;10.80;99.90;;;;;;6219750;23;20001;-83
2024/02/07 11:42:41;;;;;;;7.30;1.50;;;11.00;99.90;;;;;;6217308;23;20032;-84
2024/02/07 11:45:14;;;;;;;5.30;1.83;;;11.00;99.90;;;;;;6218241;23;20032;-83
2024/02/07 11:47:42;;;;;;;3.57;1.70;;;11.00;99.90;;;;;;6219360;23;20370;-84
2024/02/07 11:50:14;;;;;;;4.50;1.73;;;11.00;99.90;;;;;;6216829;23;20009;-83
2024/02/07 11:52:40;;;;;;;4.17;1.97;;;11.00;99.90;;;;;;6220475;23;20007;-83
2024/02/07 11:55:16;;;;;;;6.17;1.60;;;10.90;99.90;;;;;;6217157;23;20004;-82
2024/02/07 11:57:44;;;;;;;5.47;1.90;;;10.80;99.90;;;;;;6219010;23;20443;-84
2024/02/07 12:00:16;;;;;;;4.67;1.67;;;10.80;99.90;;;;;;6219114;23;20059;-83
2024/02/07 12:02:58;;;;;;;4.60;1.53;;;10.80;99.90;;;;;;6218520;23;20426;-83
2024/02/07 12:05:24;;;;;;;4.23;2.07;;;10.70;99.90;;;;;;6215337;23;20071;-82
2024/02/07 12:07:51;;;;;;;11.00;1.73;;;10.60;99.90;;;;;;6217445;23;20008;-82
2024/02/07 12:10:17;;;;;;;4.77;1.60;;;10.50;99.90;;;;;;6218670;23;20084;-83
2024/02/07 12:12:43;;;;;;;8.00;2.13;;;10.40;99.90;;;;;;6217499;23;20008;-85
2024/02/07 12:15:09;;;;;;;6.97;1.77;;;10.40;99.90;;;;;;6218252;23;20001;-83
2024/02/07 12:17:35;;;;;;;5.43;1.70;;;10.40;99.90;;;;;;6217890;23;20054;-83
2024/02/07 12:20:01;;;;;;;3.20;1.43;;;10.40;99.90;;;;;;6218511;23;20012;-83
2024/02/07 12:22:35;;;;;;;5.97;1.57;;;10.40;99.90;;;;;;6218052;23;20084;-82
2024/02/07 12:25:03;;;;;;;10.90;1.60;;;10.30;99.90;;;;;;6217616;23;20007;-83
2024/02/07 12:27:29;;;;;;;4.97;2.03;;;10.30;99.90;;;;;;6217215;23;20087;-82
2024/02/07 12:29:56;;;;;;;2.53;1.40;;;10.30;99.90;;;;;;6217411;23;20017;-83
2024/02/07 12:32:23;;;;;;;4.73;1.70;;;10.30;99.90;;;;;;6217949;23;20005;-83
2024/02/07 12:34:50;;;;;;;4.73;1.47;;;10.30;99.90;;;;;;6217087;23;20027;-83
2024/02/07 12:37:17;;;;;;;5.70;1.80;;;10.30;99.90;;;;;;6217252;23;20059;-83
2024/02/07 12:39:46;;;;;;;4.40;1.67;;;10.30;99.90;;;;;;6216190;23;20070;-86
2024/02/07 12:42:17;;;;;;;2.53;1.50;;;10.40;99.90;;;;;;6215210;23;20062;-84
2024/02/07 12:44:42;;;;;;;4.93;1.80;;;10.30;99.90;;;;;;6217246;23;20058;-82
2024/02/07 12:47:11;;;;;;;4.77;1.90;;;10.30;99.90;;;;;;6217932;23;20012;-83
2024/02/07 12:49:37;;;;;;;3.43;1.80;;;10.30;99.90;;;;;;6218188;23;20012;-83
2024/02/07 12:52:03;;;;;;;10.57;2.03;;;10.30;99.90;;;;;;6214450;23;20067;-84
2024/02/07 12:54:29;;;;;;;5.60;2.00;;;10.30;99.90;;;;;;6217178;23;20427;-82
2024/02/07 12:56:55;;;;;;;4.33;1.67;;;10.30;99.90;;;;;;6217626;23;20051;-83
2024/02/07 12:59:34;;;;;;;3.90;1.50;;;10.30;99.90;;;;;;6218305;23;20338;-83
2024/02/07 13:02:04;;;;;;;4.57;1.67;;;10.30;99.90;;;;;;6217458;23;20000;-85
2024/02/07 13:04:31;;;;;;;4.53;1.53;;;10.40;99.90;;;;;;6215806;23;20574;-82
2024/02/07 13:07:00;;;;;;;5.13;1.63;;;10.40;99.90;;;;;;6217694;23;20047;-83
2024/02/07 13:09:27;;;;;;;2.90;1.50;;;10.40;99.90;;;;;;6217665;23;20020;-85
2024/02/07 13:11:53;;;;;;;4.83;1.60;;;10.30;99.90;;;;;;6218845;23;20005;-84
2024/02/07 13:14:18;;;;;;;4.90;1.70;;;10.30;99.90;;;;;;6215522;23;20011;-83
2024/02/07 13:16:45;;;;;;;4.33;1.90;;;10.30;99.90;;;;;;6216782;23;20099;-86
2024/02/07 13:19:15;;;;;;;16.73;2.30;;;10.30;99.90;;;;;;6217674;23;20007;-84
2024/02/07 13:21:41;;;;;;;4.27;1.83;;;10.30;99.90;;;;;;6219771;23;20004;-86
2024/02/07 13:24:17;;;;;;;6.23;1.47;;;10.30;99.90;;;;;;6217418;23;20092;-84
2024/02/07 13:26:47;;;;;;;4.47;1.40;;;10.30;99.90;;;;;;6218629;23;19996;-83
2024/02/07 13:29:13;;;;;;;5.47;1.73;;;10.30;99.90;;;;;;6217890;23;20343;-85
2024/02/07 13:31:43;;;;;;;5.40;1.73;;;10.20;99.90;;;;;;6217916;23;20007;-85
2024/02/07 13:34:10;;;;;;;5.10;1.73;;;10.30;99.90;;;;;;6217480;23;20020;-88
2024/02/07 13:36:36;;;;;;;5.47;1.77;;;10.30;99.90;;;;;;6217319;23;20004;-82
2024/02/07 13:39:02;;;;;;;3.33;1.93;;;10.20;99.90;;;;;;6218075;23;20011;-83
2024/02/07 13:41:27;;;;;;;3.60;1.70;;;10.30;99.90;;;;;;6217518;23;20009;-84
2024/02/07 13:43:53;;;;;;;5.63;1.70;;;10.30;99.90;;;;;;6217344;23;20005;-83
2024/02/07 13:46:18;;;;;;;7.90;1.93;;;10.30;99.90;;;;;;6217370;23;20055;-86
2024/02/07 13:48:44;;;;;;;6.60;2.47;;;10.30;99.90;;;;;;6218686;23;20439;-83
2024/02/07 13:51:11;;;;;;;7.27;1.57;;;10.40;99.90;;;;;;6218368;23;20004;-82
2024/02/07 13:53:37;;;;;;;3.70;1.60;;;10.40;99.90;;;;;;6219282;23;20004;-82
2024/02/07 13:56:04;;;;;;;2.73;1.53;;;10.30;99.90;;;;;;6218037;23;19997;-83